Time;durP1;ratioP1;P1;durP2;ratioP2;P2;SDS_P1;SDS_P2;PMS_P1;PMS_P2;Temp;Humidity;BMP_temperature;BMP_pressure;BME280_temperature;BME280_humidity;BME280_pressure;Samples;Min_cycle;Max_cycle;Signal;HPM_P1;HPM_P2
2021/12/22 00:01:25;;;;;;;5.10;1.67;;;;;;;-1.05;85.55;102775.38;4997845;28;96622;-42
2021/12/22 00:03:51;;;;;;;4.07;2.05;;;;;;;-0.99;85.51;102786.13;4996911;28;97953;-42
2021/12/22 00:06:19;;;;;;;3.78;2.85;;;;;;;-1.03;85.36;102776.31;4995665;28;98818;-42
2021/12/22 00:08:45;;;;;;;2.00;1.50;;;;;;;-0.97;85.29;102778.19;4997202;28;96704;-42
2021/12/22 00:11:10;;;;;;;2.45;2.25;;;;;;;-1.12;85.45;102757.53;4997091;28;103558;-42
2021/12/22 00:13:35;;;;;;;5.70;4.00;;;;;;;-1.09;85.50;102763.81;4996993;28;97897;-42
2021/12/22 00:16:01;;;;;;;7.15;1.63;;;;;;;-1.12;85.13;102749.56;4997051;28;97806;-41
2021/12/22 00:18:26;;;;;;;3.17;1.98;;;;;;;-1.04;85.34;102763.91;4996612;28;96450;-42
2021/12/22 00:20:51;;;;;;;3.75;2.10;;;;;;;-1.22;85.29;102734.31;4995598;28;96908;-42
2021/12/22 00:23:17;;;;;;;5.47;2.53;;;;;;;-1.01;85.54;102766.59;4995951;28;122825;-42
2021/12/22 00:25:42;;;;;;;3.60;2.67;;;;;;;-1.07;85.58;102761.19;4996982;28;97818;-42
2021/12/22 00:28:08;;;;;;;3.28;2.78;;;;;;;-1.14;85.83;102748.66;4996891;28;96599;-42
2021/12/22 00:30:35;;;;;;;4.57;2.53;;;;;;;-1.16;85.77;102745.97;4997105;28;96726;-42
2021/12/22 00:33:05;;;;;;;7.85;1.63;;;;;;;-1.11;85.67;102756.69;4995157;28;101077;-42
2021/12/22 00:35:39;;;;;;;3.03;2.25;;;;;;;-1.13;85.33;102761.06;4995464;28;101356;-42
2021/12/22 00:38:06;;;;;;;4.43;3.60;;;;;;;-1.15;85.85;102747.72;4996937;28;96513;-42
2021/12/22 00:40:32;;;;;;;2.97;2.17;;;;;;;-1.11;85.58;102754.00;4996440;28;96747;-41
2021/12/22 00:42:57;;;;;;;5.63;2.65;;;;;;;-1.21;85.60;102739.66;4994632;28;101079;-42
2021/12/22 00:45:25;;;;;;;2.10;1.83;;;;;;;-1.23;85.64;102727.22;4996572;28;97379;-42
2021/12/22 00:47:50;;;;;;;3.38;2.90;;;;;;;-1.23;85.96;102735.19;4995160;28;96670;-42
2021/12/22 00:50:16;;;;;;;4.50;3.10;;;;;;;-1.13;85.64;102751.31;4995949;28;108664;-42
2021/12/22 00:52:41;;;;;;;10.88;3.70;;;;;;;-1.13;85.68;102747.78;4996221;28;98000;-42
2021/12/22 00:55:07;;;;;;;2.95;2.17;;;;;;;-1.13;85.80;102755.75;4996117;28;97335;-42
2021/12/22 00:57:34;;;;;;;3.58;2.17;;;;;;;-1.18;85.66;102757.44;4995134;28;96695;-42
2021/12/22 00:59:59;;;;;;;2.97;2.28;;;;;;;-1.18;85.66;102746.81;4994900;28;96934;-42
2021/12/22 01:02:25;;;;;;;6.30;1.98;;;;;;;-1.25;85.47;102735.16;4995956;28;99470;-41
2021/12/22 01:04:50;;;;;;;2.55;1.77;;;;;;;-1.15;85.80;102762.78;4995989;28;98718;-41
2021/12/22 01:07:16;;;;;;;1.80;1.63;;;;;;;-1.25;85.64;102744.91;4995532;28;98496;-42
2021/12/22 01:09:42;;;;;;;4.88;2.67;;;;;;;-1.20;85.82;102765.38;4995549;28;96880;-42
2021/12/22 01:12:08;;;;;;;4.57;3.22;;;;;;;-1.19;85.61;102776.91;4994178;28;100495;-42
2021/12/22 01:14:34;;;;;;;3.92;2.28;;;;;;;-1.17;85.55;102767.19;4994381;28;100708;-42
2021/12/22 01:17:02;;;;;;;9.90;3.33;;;;;;;-1.21;85.96;102778.66;4996073;28;96597;-42
2021/12/22 01:19:38;;;;;;;3.50;1.67;;;;;;;-1.23;85.67;102778.63;4996124;28;96801;-42
2021/12/22 01:22:48;;;;;;;4.03;2.17;;;;;;;-1.30;85.45;102763.44;4994241;28;100762;-42
2021/12/22 01:25:07;;;;;;;4.70;1.73;;;;;;;-1.31;85.46;102757.22;4997667;28;97158;-42
2021/12/22 01:27:36;;;;;;;6.82;3.80;;;;;;;-1.34;85.09;102762.47;4994534;28;96683;-42
2021/12/22 01:30:08;;;;;;;4.50;3.75;;;;;;;-1.25;85.00;102777.69;4995999;28;96698;-42
2021/12/22 01:32:33;;;;;;;;;;;;;;;-1.28;85.37;102780.31;4994107;28;101992;-42
2021/12/22 01:35:11;;;;;;;3.55;1.35;;;;;;;-1.45;85.33;102750.75;4995869;28;97877;-42
2021/12/22 01:37:37;;;;;;;1.23;1.13;;;;;;;-1.42;85.12;102747.25;4994579;28;96528;-42
2021/12/22 01:40:04;;;;;;;8.88;2.42;;;;;;;-1.31;85.45;102761.66;4994164;28;96805;-42
2021/12/22 01:42:30;;;;;;;2.47;2.28;;;;;;;-1.42;85.32;102748.16;4994111;28;101679;-42
2021/12/22 01:50:33;;;;;;;2.35;1.35;;;;;;;-1.31;85.27;102761.66;4995126;28;96673;-42
2021/12/22 01:53:04;;;;;;;1.50;1.35;;;;;;;-1.33;85.35;102760.72;4993859;28;100829;-42
2021/12/22 01:55:36;;;;;;;31.95;3.30;;;;;;;-1.34;85.21;102764.22;4993450;28;101108;-41
2021/12/22 01:58:31;;;;;;;2.42;1.77;;;;;;;-1.38;85.35;102755.31;4993772;28;96609;-41
2021/12/22 02:00:56;;;;;;;6.13;2.20;;;;;;;-1.43;85.27;102743.72;4994195;28;96782;-42
2021/12/22 02:03:21;;;;;;;3.95;2.78;;;;;;;-1.47;84.93;102735.66;4995075;28;98876;-42
2021/12/22 02:05:47;;;;;;;7.85;3.00;;;;;;;-1.43;84.87;102746.38;4994071;28;123544;-42
2021/12/22 02:08:12;;;;;;;4.40;2.58;;;;;;;-1.50;85.08;102734.72;4994475;28;115378;-42
2021/12/22 02:10:45;;;;;;;5.88;2.65;;;;;;;-1.54;84.73;102724.91;4994860;28;104750;-42
2021/12/22 02:13:15;;;;;;;3.17;1.52;;;;;;;-1.50;84.68;102741.81;4994842;28;99329;-42
2021/12/22 02:15:42;;;;;;;3.30;2.33;;;;;;;-1.49;84.77;102732.94;4995142;28;97931;-42
2021/12/22 02:18:07;;;;;;;3.10;1.58;;;;;;;-1.53;84.98;102736.41;4993912;28;96623;-42
2021/12/22 02:20:33;;;;;;;2.22;1.30;;;;;;;-1.62;85.15;102725.59;4994677;28;98797;-42
2021/12/22 02:22:58;;;;;;;4.25;2.80;;;;;;;-1.56;85.39;102739.91;4994093;28;97894;-42
2021/12/22 02:25:33;;;;;;;4.25;2.38;;;;;;;-1.58;85.32;102736.31;4995014;28;98272;-42
2021/12/22 02:28:01;;;;;;;2.20;1.67;;;;;;;-1.51;85.20;102753.28;4993677;28;96689;-42
2021/12/22 02:30:28;;;;;;;6.82;3.72;;;;;;;-1.61;85.18;102735.38;4995048;28;96810;-42
2021/12/22 02:35:41;;;;;;;2.50;2.13;;;;;;;-1.65;84.74;102741.50;4994792;28;97837;-42
2021/12/22 02:38:13;;;;;;;1.30;1.15;;;;;;;-1.64;84.67;102745.97;4995009;28;96630;-42
2021/12/22 02:40:39;;;;;;;2.60;2.22;;;;;;;-1.63;84.48;102745.97;4993700;28;96810;-42
2021/12/22 02:43:05;;;;;;;3.97;2.05;;;;;;;-1.56;84.49;102770.91;4994650;28;97853;-42
2021/12/22 02:45:34;;;;;;;4.72;3.33;;;;;;;-1.68;84.71;102758.28;4993006;28;100877;-42
2021/12/22 02:48:00;;;;;;;1.92;0.82;;;;;;;-1.66;84.68;102768.94;4992980;28;96792;-42
2021/12/22 02:50:25;;;;;;;2.17;1.63;;;;;;;-1.69;84.82;102768.84;4993499;28;97000;-42
2021/12/22 02:53:04;;;;;;;3.60;2.45;;;;;;;-1.75;84.71;102759.91;4994418;28;99470;-41
2021/12/22 02:55:42;;;;;;;4.97;3.25;;;;;;;-1.69;84.75;102779.47;4994546;28;97855;-42
2021/12/22 02:58:08;;;;;;;2.25;2.05;;;;;;;-1.82;84.59;102760.63;4993095;28;96596;-42
2021/12/22 03:00:48;;;;;;;2.95;1.83;;;;;;;-1.67;84.92;102783.06;4993055;28;96724;-41
2021/12/22 03:03:29;;;;;;;3.85;2.88;;;;;;;-1.75;85.26;102777.59;4994389;28;99789;-42
2021/12/22 03:05:55;;;;;;;5.00;1.77;;;;;;;-1.71;85.02;102777.69;4993253;28;100713;-42
2021/12/22 03:08:21;;;;;;;1.13;1.00;;;;;;;-1.85;84.90;102757.94;4994521;28;96708;-41
2021/12/22 03:10:46;;;;;;;2.50;1.48;;;;;;;-1.80;85.47;102768.66;4993662;28;116331;-42
2021/12/22 03:13:11;;;;;;;3.88;2.40;;;;;;;-1.71;85.14;102771.50;4993867;28;98156;-42
2021/12/22 03:15:36;;;;;;;3.53;2.88;;;;;;;-1.79;85.14;102762.47;4993823;28;110403;-42
2021/12/22 03:18:03;;;;;;;6.22;3.40;;;;;;;-1.82;85.28;102760.63;4993669;28;110074;-42
2021/12/22 03:20:29;;;;;;;5.30;2.90;;;;;;;-1.90;85.24;102753.41;4993208;28;96841;-42
2021/12/22 03:22:55;;;;;;;2.33;1.70;;;;;;;-1.92;85.39;102746.28;4994051;28;97941;-42
2021/12/22 03:25:25;;;;;;;1.85;1.60;;;;;;;-1.84;85.43;102757.06;4992666;28;101162;-42
2021/12/22 03:27:51;;;;;;;1.27;1.13;;;;;;;-1.87;85.41;102753.47;4993074;28;96726;-42
2021/12/22 03:30:20;;;;;;;2.40;1.88;;;;;;;-1.93;85.67;102738.31;4993471;28;96812;-42
2021/12/22 03:32:46;;;;;;;3.13;1.98;;;;;;;-1.92;85.84;102734.78;4992565;28;101111;-42
2021/12/22 03:35:16;;;;;;;2.92;2.60;;;;;;;-1.91;85.73;102736.53;4997247;28;97377;-42
2021/12/22 03:37:43;;;;;;;6.35;1.88;;;;;;;-2.03;85.61;102718.59;4996005;28;96599;-42
2021/12/22 03:40:08;;;;;;;2.75;1.73;;;;;;;-1.90;85.79;102737.47;4996267;28;96893;-41
2021/12/22 03:42:34;;;;;;;2.90;2.00;;;;;;;-1.85;85.49;102749.97;4997147;28;99930;-42
2021/12/22 03:44:59;;;;;;;2.97;2.13;;;;;;;-1.87;85.76;102757.00;4996706;28;118107;-42
2021/12/22 03:47:26;;;;;;;2.35;1.15;;;;;;;-1.84;85.74;102753.50;4996640;28;117143;-42
2021/12/22 03:49:52;;;;;;;4.80;2.00;;;;;;;-1.89;85.48;102740.13;4995974;28;96860;-42
2021/12/22 03:52:17;;;;;;;1.92;1.80;;;;;;;-1.87;85.54;102742.84;4995696;28;100936;-42
2021/12/22 03:54:43;;;;;;;5.25;1.88;;;;;;;-1.95;85.58;102724.09;4997760;28;97766;-42
2021/12/22 03:57:08;;;;;;;2.83;2.60;;;;;;;-1.82;85.50;102746.47;4997501;28;96600;-42
2021/12/22 03:59:48;;;;;;;2.70;1.80;;;;;;;-1.85;85.27;102739.34;4996249;28;116764;-42
2021/12/22 04:02:14;;;;;;;1.42;1.23;;;;;;;-1.92;85.27;102727.69;4995934;28;124431;-42
2021/12/22 04:04:43;;;;;;;2.58;2.15;;;;;;;-1.91;85.20;102720.63;4996700;28;99238;-42
2021/12/22 04:07:08;;;;;;;4.03;1.77;;;;;;;-1.80;84.88;102740.31;4997293;28;96570;-42
2021/12/22 04:09:34;;;;;;;5.13;2.17;;;;;;;-1.94;85.11;102728.53;4996882;28;103864;-42
2021/12/22 04:11:59;;;;;;;2.53;1.60;;;;;;;-1.95;85.33;102732.06;4996682;28;105971;-42
2021/12/22 04:14:24;;;;;;;1.27;1.05;;;;;;;-1.97;85.56;102720.50;4996459;28;117494;-41
2021/12/22 04:16:50;;;;;;;1.48;1.33;;;;;;;-1.88;85.63;102735.72;4997145;28;96457;-42
2021/12/22 04:19:15;;;;;;;3.35;1.55;;;;;;;-1.88;85.30;102719.78;4997363;28;96664;-42
2021/12/22 04:21:40;;;;;;;2.80;0.95;;;;;;;-1.98;85.30;102703.69;4996848;28;97879;-42
2021/12/22 04:24:07;;;;;;;1.42;1.30;;;;;;;-1.99;85.04;102701.88;4996527;28;98243;-42
2021/12/22 04:26:33;;;;;;;2.38;1.75;;;;;;;-2.00;85.62;102702.75;4995088;28;96708;-41
2021/12/22 04:28:59;;;;;;;1.08;1.05;;;;;;;-1.92;85.53;102708.22;4996661;28;96839;-42
2021/12/22 04:31:24;;;;;;;4.03;2.60;;;;;;;-2.04;85.59;102689.38;4996576;28;97941;-42
2021/12/22 04:33:50;;;;;;;1.60;1.50;;;;;;;-1.89;85.63;102716.22;4996146;28;99213;-42
2021/12/22 04:36:15;;;;;;;2.88;2.28;;;;;;;-1.88;85.60;102714.47;4996938;28;96743;-42
2021/12/22 04:38:40;;;;;;;7.97;3.25;;;;;;;-1.98;85.56;102690.41;4996751;28;96842;-42
2021/12/22 04:41:06;;;;;;;3.42;2.92;;;;;;;-1.96;85.32;102701.03;4996010;28;109729;-41
2021/12/22 04:43:31;;;;;;;3.95;2.88;;;;;;;-1.87;85.48;102703.88;4996766;28;97983;-42
2021/12/22 04:45:56;;;;;;;1.52;1.30;;;;;;;-1.98;85.24;102692.16;4996426;28;96714;-42
2021/12/22 04:48:22;;;;;;;2.40;1.23;;;;;;;-1.95;85.81;102689.56;4994530;28;104194;-42
2021/12/22 04:50:47;;;;;;;3.63;2.03;;;;;;;-1.89;85.46;102708.25;4995925;28;97876;-42
2021/12/22 04:53:19;;;;;;;2.20;1.92;;;;;;;-1.91;85.63;102699.38;4996454;28;97739;-42
2021/12/22 04:55:45;;;;;;;;;;;;;;;-1.87;85.48;102703.00;4996858;28;96540;-42
2021/12/22 04:58:10;;;;;;;0.05;0.05;;;;;;;-2.01;85.37;102685.03;4996650;28;97130;-42
2021/12/22 05:00:38;;;;;;;6.25;3.58;;;;;;;-1.96;85.40;102698.38;4995764;28;97929;-42
2021/12/22 05:03:03;;;;;;;2.10;1.92;;;;;;;-2.05;85.86;102685.84;4995991;28;97808;-42
2021/12/22 05:05:29;;;;;;;6.43;1.20;;;;;;;-2.05;85.80;102685.84;4996471;28;96919;-42
2021/12/22 05:07:55;;;;;;;2.03;1.38;;;;;;;-1.96;85.71;102706.34;4995226;28;96828;-42
2021/12/22 05:10:21;;;;;;;5.38;2.90;;;;;;;-2.05;85.87;102692.88;4995873;28;99468;-42
2021/12/22 05:12:47;;;;;;;4.03;2.20;;;;;;;-2.05;85.71;102687.56;4994423;28;100689;-41
2021/12/22 05:15:13;;;;;;;2.97;2.70;;;;;;;-2.15;85.89;102666.16;4995796;28;96466;-42
2021/12/22 05:20:13;;;;;;;4.82;2.78;;;;;;;-2.04;86.22;102686.72;4993714;28;97561;-42
2021/12/22 05:22:38;;;;;;;5.80;3.08;;;;;;;-2.04;86.02;102686.72;4994521;28;101159;-42
2021/12/22 05:25:05;;;;;;;3.33;1.17;;;;;;;-2.14;86.11;102667.06;4996248;28;96460;-42
2021/12/22 05:27:31;;;;;;;1.50;1.40;;;;;;;-2.07;86.00;102678.69;4994506;28;96886;-42
2021/12/22 05:29:57;;;;;;;3.78;2.15;;;;;;;-2.02;86.11;102692.97;4993890;28;100846;-42
2021/12/22 05:32:26;;;;;;;4.57;2.42;;;;;;;-2.13;86.05;102666.19;4996110;28;97726;-42
2021/12/22 05:34:52;;;;;;;3.92;2.75;;;;;;;-2.12;86.07;102678.63;4994605;28;96766;-42
2021/12/22 05:37:18;;;;;;;2.97;2.28;;;;;;;-2.17;86.11;102667.91;4994449;28;96770;-42
2021/12/22 05:39:43;;;;;;;2.25;2.05;;;;;;;-2.04;85.93;102692.03;4995205;28;97445;-42
2021/12/22 05:42:08;;;;;;;1.60;1.50;;;;;;;-2.23;85.94;102653.63;4994438;28;125445;-42
2021/12/22 05:44:34;;;;;;;2.88;2.20;;;;;;;-2.20;85.88;102666.94;4995393;28;96616;-42
2021/12/22 05:46:59;;;;;;;2.30;1.88;;;;;;;-2.16;86.02;102672.34;4995392;28;110531;-42
2021/12/22 05:49:24;;;;;;;5.75;1.95;;;;;;;-2.02;85.97;102696.53;4994643;28;122743;-42
2021/12/22 05:51:50;;;;;;;0.98;0.90;;;;;;;-2.06;86.10;102683.16;4995343;28;97295;-42
2021/12/22 05:54:15;;;;;;;2.50;2.10;;;;;;;-2.12;86.20;102670.66;4995254;28;104967;-42
2021/12/22 05:56:50;;;;;;;5.78;3.60;;;;;;;-2.14;86.18;102673.28;4995222;28;96687;-42
2021/12/22 05:59:15;;;;;;;1.17;0.82;;;;;;;-2.00;85.86;102689.47;4993410;28;125063;-42
2021/12/22 06:01:40;;;;;;;1.92;1.63;;;;;;;-2.03;86.37;102686.75;4995005;28;99475;-42
2021/12/22 06:04:07;;;;;;;3.55;1.95;;;;;;;-2.01;85.80;102689.44;4995325;28;96682;-42
2021/12/22 06:06:32;;;;;;;2.05;1.85;;;;;;;-2.14;85.33;102673.28;4995439;28;96812;-42
2021/12/22 06:08:57;;;;;;;2.38;1.45;;;;;;;-2.06;85.89;102683.16;4995282;28;97294;-41
2021/12/22 06:11:23;;;;;;;1.75;1.50;;;;;;;-2.09;85.87;102677.78;4993853;28;125749;-42
2021/12/22 06:13:48;;;;;;;1.08;0.88;;;;;;;-2.17;85.50;102667.91;4995216;28;96777;-42
2021/12/22 06:16:13;;;;;;;1.00;0.90;;;;;;;-2.04;85.81;102684.97;4995278;28;96851;-42
2021/12/22 06:18:43;;;;;;;2.83;1.55;;;;;;;-2.14;85.77;102664.41;4994816;28;99401;-42
2021/12/22 06:21:12;;;;;;;2.60;1.85;;;;;;;-2.05;85.88;102687.56;4993779;28;100746;-41
2021/12/22 06:23:37;;;;;;;1.25;1.15;;;;;;;-2.08;85.74;102679.56;4993896;28;96707;-42
2021/12/22 06:26:03;;;;;;;3.13;2.55;;;;;;;-2.09;85.89;102669.81;4995083;28;96895;-42
2021/12/22 06:28:29;;;;;;;2.85;2.25;;;;;;;-2.04;85.84;102679.66;4992734;28;101138;-42
2021/12/22 06:30:54;;;;;;;1.10;1.08;;;;;;;-2.03;85.98;102672.59;4994877;28;97955;-42
2021/12/22 06:33:19;;;;;;;3.97;2.30;;;;;;;-2.09;85.96;102661.84;4995281;28;96626;-42
2021/12/22 06:35:46;;;;;;;2.65;2.10;;;;;;;-2.07;85.82;102673.38;4995183;28;96818;-42
2021/12/22 06:38:13;;;;;;;2.40;1.67;;;;;;;-2.20;86.03;102649.25;4993451;28;100923;-42
2021/12/22 06:40:39;;;;;;;3.35;1.83;;;;;;;-2.22;85.93;102644.78;4992970;28;100815;-43
2021/12/22 06:43:04;;;;;;;3.10;2.35;;;;;;;-2.11;85.91;102661.81;4995118;28;96452;-42
2021/12/22 06:45:29;;;;;;;4.35;1.95;;;;;;;-2.14;85.85;102660.00;4995501;28;97111;-42
2021/12/22 06:47:55;;;;;;;2.15;1.73;;;;;;;-2.13;86.11;102669.75;4994429;28;99231;-42
2021/12/22 06:50:20;;;;;;;2.60;1.85;;;;;;;-2.05;85.92;102685.84;4994467;28;97370;-42
2021/12/22 06:52:45;;;;;;;1.60;1.50;;;;;;;-2.17;86.17;102667.91;4993662;28;110966;-42
2021/12/22 06:55:11;;;;;;;3.22;2.22;;;;;;;-2.05;85.88;102676.97;4993539;28;116633;-43
2021/12/22 06:57:36;;;;;;;2.85;2.35;;;;;;;-2.15;86.12;102666.16;4993435;28;120251;-42
2021/12/22 07:00:06;;;;;;;2.20;1.65;;;;;;;-2.04;85.93;102690.28;4993982;28;97894;-43
2021/12/22 07:02:35;;;;;;;2.33;2.03;;;;;;;-2.14;86.37;102670.63;4993351;28;96596;-42
2021/12/22 07:05:01;;;;;;;3.33;2.90;;;;;;;-2.03;86.47;102694.72;4993273;28;96808;-42
2021/12/22 07:07:26;;;;;;;2.47;2.25;;;;;;;-2.11;86.30;102680.41;4994331;28;97915;-42
2021/12/22 07:09:52;;;;;;;2.85;1.95;;;;;;;-2.21;86.25;102657.19;4996247;28;124879;-43
2021/12/22 07:12:17;;;;;;;2.90;1.77;;;;;;;-2.04;86.37;102681.44;4997010;28;117459;-43
2021/12/22 07:14:42;;;;;;;1.88;1.30;;;;;;;-2.13;86.40;102672.38;4998304;28;96912;-42
2021/12/22 07:17:09;;;;;;;2.72;1.70;;;;;;;-2.15;86.63;102668.81;4997410;28;96804;-42
2021/12/22 07:19:35;;;;;;;2.35;1.00;;;;;;;-2.02;86.32;102680.59;4996347;28;100899;-42
2021/12/22 07:22:00;;;;;;;2.15;1.70;;;;;;;-2.11;86.32;102663.59;4998107;28;96590;-42
2021/12/22 07:24:25;;;;;;;1.80;1.70;;;;;;;-2.01;86.10;102676.16;4997695;28;97027;-43
2021/12/22 07:26:51;;;;;;;1.55;1.45;;;;;;;-2.03;86.48;102670.81;4997584;28;99837;-42
2021/12/22 07:29:16;;;;;;;1.40;0.88;;;;;;;-2.14;86.19;102649.38;4997595;28;97800;-43
2021/12/22 07:31:41;;;;;;;2.15;1.95;;;;;;;-2.07;86.07;102660.09;4997894;28;97085;-42
2021/12/22 07:34:15;;;;;;;4.90;1.98;;;;;;;-2.22;86.09;102629.72;4998292;28;96789;-43
2021/12/22 07:36:49;;;;;;;1.27;0.95;;;;;;;-2.05;86.23;102659.28;4997800;28;97368;-42
2021/12/22 07:39:15;;;;;;;1.83;1.63;;;;;;;-2.08;85.94;102647.72;4995873;28;100509;-43
2021/12/22 07:41:40;;;;;;;3.38;2.10;;;;;;;-2.10;86.01;102636.16;4996656;28;101627;-43
2021/12/22 07:44:05;;;;;;;2.33;1.88;;;;;;;-2.09;85.95;102640.63;4997345;28;99121;-42
2021/12/22 07:46:31;;;;;;;7.30;3.05;;;;;;;-2.11;86.20;102642.34;4996891;28;106346;-42
2021/12/22 07:48:56;;;;;;;3.58;1.95;;;;;;;-2.10;85.92;102645.00;4995849;28;100876;-42
2021/12/22 07:51:22;;;;;;;2.03;1.60;;;;;;;-2.10;85.80;102639.69;4996481;28;116755;-43
2021/12/22 07:53:47;;;;;;;1.98;1.40;;;;;;;-2.01;85.85;102662.88;4996871;28;103926;-43
2021/12/22 07:56:12;;;;;;;3.85;2.33;;;;;;;-1.96;85.77;102669.19;4995658;28;125798;-42
2021/12/22 07:58:38;;;;;;;6.45;2.03;;;;;;;-1.98;85.52;102668.25;4997045;28;99244;-42
2021/12/22 08:01:03;;;;;;;4.65;2.22;;;;;;;-2.01;85.89;102666.44;4997313;28;96581;-42
2021/12/22 08:03:28;;;;;;;1.95;1.50;;;;;;;-2.07;85.89;102655.72;4997221;28;97033;-42
2021/12/22 08:05:55;;;;;;;2.70;2.47;;;;;;;-2.00;86.08;102672.63;4996193;28;109453;-42
2021/12/22 08:08:20;;;;;;;1.88;1.38;;;;;;;-2.06;85.93;102664.56;4995067;28;102213;-42
2021/12/22 08:10:46;;;;;;;3.40;3.03;;;;;;;-1.93;86.03;102690.50;4997080;28;96487;-42
2021/12/22 08:13:12;;;;;;;5.95;2.58;;;;;;;-1.89;86.13;102694.09;4995755;28;96817;-42
2021/12/22 08:15:37;;;;;;;7.15;3.42;;;;;;;-2.00;85.92;102669.97;4996880;28;97777;-42
2021/12/22 08:18:02;;;;;;;12.80;3.17;;;;;;;-1.95;85.86;102681.59;4996866;28;99218;-42
2021/12/22 08:20:28;;;;;;;5.57;4.55;;;;;;;-2.08;86.18;102647.72;4996692;28;96609;-42
2021/12/22 08:22:53;;;;;;;4.63;2.42;;;;;;;-1.87;85.96;102684.41;4996993;28;97014;-42
2021/12/22 08:25:20;;;;;;;1.10;0.85;;;;;;;-1.99;85.96;102654.09;4995997;28;117752;-42
2021/12/22 08:27:46;;;;;;;3.22;2.75;;;;;;;-1.96;85.66;102659.44;4995342;28;100798;-42
2021/12/22 08:30:12;;;;;;;3.35;2.15;;;;;;;-1.96;85.84;102659.44;4994983;28;96559;-42
2021/12/22 08:32:38;;;;;;;2.80;1.98;;;;;;;-1.97;85.56;102659.44;4995396;28;96815;-43
2021/12/22 08:35:06;;;;;;;4.50;2.78;;;;;;;-1.96;85.85;102653.25;4995036;28;100989;-42
2021/12/22 08:40:18;;;;;;;3.53;2.50;;;;;;;-1.84;86.20;102663.22;4996853;28;96536;-45
2021/12/22 08:42:44;;;;;;;7.93;1.88;;;;;;;-1.83;86.10;102665.91;4996836;28;96870;-42
2021/12/22 08:45:11;;;;;;;1.17;0.90;;;;;;;-1.89;86.15;102647.19;4994867;28;101310;-45
2021/12/22 08:47:37;;;;;;;1.00;0.88;;;;;;;-1.75;86.14;102666.03;4995419;28;101222;-45
2021/12/22 08:50:09;;;;;;;4.63;3.63;;;;;;;-1.75;86.33;102660.72;4995036;28;96716;-43
2021/12/22 08:52:34;;;;;;;3.15;2.50;;;;;;;-1.78;86.20;102653.59;4995144;28;97714;-42
2021/12/22 08:55:00;;;;;;;3.45;2.35;;;;;;;-1.74;86.30;102660.78;4995908;28;98084;-42
2021/12/22 08:57:25;;;;;;;3.75;2.08;;;;;;;-1.67;86.21;102655.56;4995837;28;98490;-42
2021/12/22 08:59:51;;;;;;;1.50;1.27;;;;;;;-1.75;86.33;102652.75;4995880;28;96714;-42
2021/12/22 09:02:16;;;;;;;2.33;1.38;;;;;;;-1.59;86.13;102659.25;4996228;28;96788;-42
2021/12/22 09:04:42;;;;;;;5.65;3.47;;;;;;;-1.58;86.22;102656.63;4995704;28;102958;-42
2021/12/22 09:07:07;;;;;;;2.53;1.70;;;;;;;-1.61;86.00;102647.72;4995764;28;110456;-42
2021/12/22 09:09:32;;;;;;;4.90;1.30;;;;;;;-1.48;86.07;102662.97;4996300;28;96712;-42
2021/12/22 09:11:58;;;;;;;20.15;4.20;;;;;;;-1.51;86.12;102652.31;4996773;28;96680;-42
2021/12/22 09:14:24;;;;;;;1.80;1.27;;;;;;;-1.45;86.10;102657.75;4995830;28;99674;-42
2021/12/22 09:16:51;;;;;;;3.72;2.65;;;;;;;-1.39;86.12;102665.81;4994360;28;100763;-42
2021/12/22 09:19:16;;;;;;;1.00;1.00;;;;;;;-1.46;86.04;102645.31;4994198;28;96622;-42
2021/12/22 09:21:42;;;;;;;2.30;1.52;;;;;;;-1.33;86.21;102667.69;4995968;28;96886;-42
2021/12/22 09:24:07;;;;;;;6.88;3.80;;;;;;;-1.34;85.66;102655.25;4995979;28;97893;-42
2021/12/22 09:26:33;;;;;;;3.58;2.17;;;;;;;-1.36;86.08;102646.34;4995844;28;97905;-42
2021/12/22 09:28:59;;;;;;;2.60;2.15;;;;;;;-1.23;86.01;102655.44;4994575;28;96534;-42
2021/12/22 09:31:25;;;;;;;3.45;1.95;;;;;;;-1.29;85.53;102640.28;4994876;28;96808;-42
2021/12/22 09:33:51;;;;;;;1.13;1.05;;;;;;;-1.26;85.83;102643.00;4995573;28;97656;-43
2021/12/22 09:36:18;;;;;;;2.60;2.30;;;;;;;-1.16;85.93;102644.03;4995880;28;99330;-42
2021/12/22 09:38:43;;;;;;;2.28;2.05;;;;;;;-1.24;85.87;102620.00;4994716;28;96583;-42
2021/12/22 09:41:10;;;;;;;8.10;2.25;;;;;;;-1.35;85.68;102625.13;4995804;28;96746;-42
2021/12/22 09:43:35;;;;;;;6.00;1.58;;;;;;;-1.19;85.96;102650.19;4993649;28;100571;-42
2021/12/22 09:46:08;;;;;;;2.28;1.90;;;;;;;-1.10;85.72;102660.06;4995522;28;97378;-42
2021/12/22 09:53:36;;;;;;;1.52;1.42;;;;;;;-1.03;85.49;102643.34;4995385;28;97574;-42
2021/12/22 09:56:02;;;;;;;3.30;2.33;;;;;;;-0.92;85.56;102643.53;4993619;28;100640;-42
2021/12/22 09:58:28;;;;;;;3.10;2.55;;;;;;;-0.79;85.47;102652.56;4995552;28;96767;-42
2021/12/22 10:00:54;;;;;;;1.75;1.63;;;;;;;-0.93;85.39;102617.78;4994444;28;96851;-42
2021/12/22 10:03:22;;;;;;;7.43;1.83;;;;;;;-0.69;85.25;102650.06;4993665;28;101351;-42
2021/12/22 10:05:48;;;;;;;2.47;2.25;;;;;;;-0.71;85.25;102637.63;4993683;28;102852;-42
2021/12/22 10:08:13;;;;;;;2.90;2.45;;;;;;;-0.58;85.44;102644.88;4994812;28;96503;-42
2021/12/22 10:10:43;;;;;;;2.33;1.65;;;;;;;-0.54;85.43;102652.03;4995509;28;96750;-42
2021/12/22 10:13:13;;;;;;;4.25;2.67;;;;;;;-0.63;85.26;102627.06;4994943;28;99409;-43
2021/12/22 10:15:39;;;;;;;1.92;1.45;;;;;;;-0.52;84.93;102644.97;4993619;28;101835;-42
2021/12/22 10:18:13;;;;;;;8.98;3.15;;;;;;;-0.51;84.99;102643.19;4995175;28;96456;-42
2021/12/22 10:20:40;;;;;;;3.50;2.35;;;;;;;-0.60;84.64;102619.13;4993932;28;96809;-42
2021/12/22 10:23:27;;;;;;;2.10;1.80;;;;;;;-0.55;84.98;102628.06;4993511;28;101207;-42
2021/12/22 10:25:59;;;;;;;4.75;2.35;;;;;;;-0.52;84.59;102623.69;4993656;28;100692;-43
2021/12/22 10:28:26;;;;;;;3.37;2.37;;;;;;;-0.38;84.86;102645.16;4993623;28;96761;-42
2021/12/22 10:30:58;;;;;;;2.35;1.67;;;;;;;-0.45;84.55;102617.56;4993586;28;96877;-43
2021/12/22 10:33:28;;;;;;;0.75;0.75;;;;;;;-0.26;84.15;102633.78;4994479;28;97956;-42
2021/12/22 10:36:00;;;;;;;3.45;2.58;;;;;;;-0.20;84.37;102636.50;4993383;28;100955;-42
2021/12/22 10:38:28;;;;;;;1.90;1.63;;;;;;;-0.20;84.06;102611.63;4995040;28;97134;-43
2021/12/22 10:40:56;;;;;;;2.88;2.38;;;;;;;-0.15;83.94;102612.56;4993516;28;96880;-42
2021/12/22 10:43:23;;;;;;;2.75;2.03;;;;;;;0.03;83.59;102635.88;4992858;28;101191;-43
2021/12/22 10:45:52;;;;;;;4.03;3.45;;;;;;;-0.03;83.60;102612.72;4994315;28;99169;-42
2021/12/22 10:51:12;;;;;;;1.40;1.25;;;;;;;0.09;83.16;102617.28;4995597;28;96458;-42
2021/12/22 10:53:43;;;;;;;2.60;1.90;;;;;;;0.18;83.16;102628.91;4993013;28;100943;-42
2021/12/22 10:56:08;;;;;;;2.63;1.80;;;;;;;0.19;82.51;102632.47;4992844;28;101676;-42
2021/12/22 10:58:34;;;;;;;3.70;3.33;;;;;;;0.30;82.51;102620.16;4993790;28;96781;-43
2021/12/22 11:01:11;;;;;;;2.70;1.65;;;;;;;0.51;81.59;102626.56;4994771;28;96651;-42
2021/12/22 11:03:40;;;;;;;2.22;1.90;;;;;;;0.61;80.77;102628.41;4992976;28;101164;-42
2021/12/22 11:06:21;;;;;;;2.80;2.33;;;;;;;0.64;81.26;102617.78;4992887;28;101242;-42
2021/12/22 11:08:53;;;;;;;2.47;1.73;;;;;;;0.79;80.29;102615.25;4994762;28;96715;-42
2021/12/22 11:11:19;;;;;;;1.85;1.60;;;;;;;0.91;79.65;102595.78;4992917;28;97101;-43
2021/12/22 11:13:44;;;;;;;1.48;1.38;;;;;;;1.13;79.13;102594.13;4993113;28;126797;-42
2021/12/22 11:16:14;;;;;;;3.55;2.78;;;;;;;1.28;78.80;102596.84;4994780;28;97798;-43
2021/12/22 11:18:40;;;;;;;2.00;1.88;;;;;;;1.19;79.17;102586.16;4993194;28;96712;-42
2021/12/22 11:21:23;;;;;;;4.32;2.85;;;;;;;1.21;79.71;102591.47;4993232;28;96850;-43
2021/12/22 11:23:49;;;;;;;4.90;2.75;;;;;;;1.06;79.18;102553.16;4992269;28;101533;-42
2021/12/22 11:26:15;;;;;;;2.55;1.80;;;;;;;1.11;79.94;102566.53;4993789;28;99294;-43
2021/12/22 11:28:41;;;;;;;5.28;2.78;;;;;;;0.88;80.28;102547.72;4994042;28;96465;-42
2021/12/22 11:31:09;;;;;;;4.72;2.55;;;;;;;0.93;79.86;102561.06;4992996;28;96775;-43
2021/12/22 11:33:35;;;;;;;3.47;2.72;;;;;;;0.89;80.28;102549.50;4992476;28;101324;-43
2021/12/22 11:36:03;;;;;;;4.05;2.67;;;;;;;0.84;80.57;102548.59;4993782;28;99621;-42
2021/12/22 11:38:30;;;;;;;1.73;1.48;;;;;;;0.85;80.42;102540.59;4992971;28;96731;-43
2021/12/22 11:41:09;;;;;;;2.80;1.77;;;;;;;0.98;80.26;102548.69;4992725;28;96874;-42
2021/12/22 11:43:40;;;;;;;3.08;2.38;;;;;;;1.01;80.12;102556.69;4992480;28;101318;-42
2021/12/22 11:46:05;;;;;;;4.72;2.90;;;;;;;1.08;79.90;102539.84;4992373;28;100529;-43